createdAt,value
2023-11-20T00:00:07.834Z,100225.91
2023-11-20T00:03:11.206Z,100218.78
2023-11-20T00:06:14.243Z,100224.25
2023-11-20T00:09:17.597Z,100210.53
2023-11-20T00:12:23.294Z,100211.88
2023-11-20T00:15:27.963Z,100211.06
2023-11-20T00:18:30.941Z,100211.88
2023-11-20T00:21:35.569Z,100216.22
2023-11-20T00:24:39.277Z,100222.03
2023-11-20T00:27:42.609Z,100213.75
2023-11-20T00:30:46.909Z,100223.63
2023-11-20T00:33:49.703Z,100224.72
2023-11-20T00:36:52.709Z,100220.06
2023-11-20T00:39:55.580Z,100206.34
2023-11-20T00:42:58.645Z,100211.28
2023-11-20T00:46:03.375Z,100214.84
2023-11-20T00:49:07.029Z,100210.47
2023-11-20T00:52:12.666Z,100206.63
2023-11-20T00:55:15.659Z,100208.03
2023-11-20T00:58:19.463Z,100200.34
2023-11-20T01:01:23.982Z,100202.56
2023-11-20T01:04:26.936Z,100195.69
2023-11-20T01:07:29.921Z,100201.19
2023-11-20T01:10:32.668Z,100192.13
2023-11-20T01:13:35.592Z,100200.09
2023-11-20T01:16:39.766Z,100204.16
2023-11-20T01:19:42.950Z,100196.22
2023-11-20T01:22:45.792Z,100196.75
2023-11-20T01:25:48.957Z,100202.00
2023-11-20T01:28:51.778Z,100201.47
2023-11-20T01:31:56.080Z,100204.19
2023-11-20T01:34:59.617Z,100196.25
2023-11-20T01:38:02.647Z,100194.28
2023-11-20T01:41:05.889Z,100195.69
2023-11-20T01:44:08.799Z,100193.78
2023-11-20T01:47:13.559Z,100196.50
2023-11-20T01:50:17.317Z,100192.63
2023-11-20T01:53:20.473Z,100191.53
2023-11-20T01:56:23.804Z,100185.50
2023-11-20T01:59:27.183Z,100188.00
2023-11-20T02:02:32.254Z,100181.94
2023-11-20T02:05:35.627Z,100180.63
2023-11-20T02:08:38.531Z,100187.44
2023-11-20T02:11:43.391Z,100172.63
2023-11-20T02:14:46.372Z,100176.75
2023-11-20T02:17:50.649Z,100165.25
2023-11-20T02:20:53.534Z,100157.28
2023-11-20T02:23:56.387Z,100163.88
2023-11-20T02:27:10.238Z,100158.41
2023-11-20T02:30:15.008Z,100155.38
2023-11-20T02:33:17.746Z,100154.53
2023-11-20T02:36:26.447Z,100153.47
2023-11-20T02:39:29.177Z,100148.25
2023-11-20T02:42:32.329Z,100147.97
2023-11-20T02:45:37.214Z,100146.59
2023-11-20T02:48:41.021Z,100132.63
2023-11-20T02:51:44.074Z,100140.84
2023-11-20T02:54:47.185Z,100131.78
2023-11-20T02:57:49.993Z,100141.94
2023-11-20T03:00:55.286Z,100144.13
2023-11-20T03:03:58.479Z,100144.69
2023-11-20T03:07:01.869Z,100133.16
2023-11-20T03:10:06.542Z,100133.72
2023-11-20T03:13:11.951Z,100126.84
2023-11-20T03:16:16.158Z,100123.00
2023-11-20T03:19:19.283Z,100122.78
2023-11-20T03:22:22.137Z,100132.66
2023-11-20T03:25:25.305Z,100128.22
2023-11-20T03:28:28.056Z,100129.59
2023-11-20T03:31:37.571Z,100128.22
2023-11-20T03:34:40.522Z,100126.03
2023-11-20T03:37:43.728Z,100126.03
2023-11-20T03:40:47.084Z,100120.56
2023-11-20T03:43:51.823Z,100124.66
2023-11-20T03:46:56.501Z,100114.50
2023-11-20T03:49:59.508Z,100116.72
2023-11-20T03:53:02.239Z,100113.69
2023-11-20T03:56:09.845Z,100111.25
2023-11-20T03:59:12.735Z,100111.22
2023-11-20T04:02:17.678Z,100113.41
2023-11-20T04:05:21.289Z,100096.72
2023-11-20T04:08:24.383Z,100101.38
2023-11-20T04:11:27.373Z,100093.94
2023-11-20T04:14:31.086Z,100099.97
2023-11-20T04:17:36.060Z,100096.94
2023-11-20T04:20:43.625Z,100093.13
2023-11-20T04:23:46.935Z,100090.09
2023-11-20T04:26:49.855Z,100085.16
2023-11-20T04:29:53.042Z,100073.09
2023-11-20T04:32:57.560Z,100085.47
2023-11-20T04:36:03.427Z,100072.00
2023-11-20T04:39:06.487Z,100072.81
2023-11-20T04:42:09.193Z,100067.06
2023-11-20T04:45:13.758Z,100069.00
2023-11-20T04:48:18.893Z,100059.09
2023-11-20T04:51:22.471Z,100055.56
2023-11-20T04:54:25.385Z,100061.31
2023-11-20T04:57:28.820Z,100055.28
2023-11-20T05:00:32.551Z,100050.91
2023-11-20T05:03:39.056Z,100046.50
2023-11-20T05:06:41.895Z,100053.34
2023-11-20T05:09:44.667Z,100054.47
2023-11-20T05:12:47.735Z,100059.13
2023-11-20T05:15:50.632Z,100057.47
2023-11-20T05:18:54.991Z,100065.13
2023-11-20T05:21:57.906Z,100062.97
2023-11-20T05:25:01.017Z,100051.16
2023-11-20T05:28:04.446Z,100062.97
2023-11-20T05:31:07.532Z,100057.19
2023-11-20T05:34:11.974Z,100064.03
2023-11-20T05:37:14.894Z,100060.22
2023-11-20T05:40:19.321Z,100052.25
2023-11-20T05:43:22.176Z,100064.59
2023-11-20T05:46:25.099Z,100058.56
2023-11-20T05:49:30.283Z,100059.13
2023-11-20T05:52:33.866Z,100063.50
2023-11-20T05:55:36.969Z,100060.75
2023-11-20T05:58:39.824Z,100072.84
2023-11-20T06:01:43.662Z,100072.25
2023-11-20T06:04:48.219Z,100064.31
2023-11-20T06:07:52.884Z,100073.66
2023-11-20T06:10:55.705Z,100074.44
2023-11-20T06:13:58.984Z,100078.31
2023-11-20T06:17:01.848Z,100077.22
2023-11-20T06:20:09.743Z,100079.69
2023-11-20T06:23:12.786Z,100080.78
2023-11-20T06:26:15.602Z,100082.44
2023-11-20T06:29:18.879Z,100085.44
2023-11-20T06:32:22.702Z,100087.09
2023-11-20T06:35:27.238Z,100089.56
2023-11-20T06:38:32.140Z,100101.34
2023-11-20T06:41:38.518Z,100098.31
2023-11-20T06:44:41.284Z,100103.56
2023-11-20T06:47:44.190Z,100105.22
2023-11-20T06:50:48.504Z,100112.06
2023-11-20T06:53:51.466Z,100107.13
2023-11-20T06:56:55.030Z,100115.63
2023-11-20T06:59:58.031Z,100113.44
2023-11-20T07:03:00.893Z,100117.28
2023-11-20T07:06:05.856Z,100117.28
2023-11-20T07:09:13.456Z,100125.22
2023-11-20T07:12:17.538Z,100118.94
2023-11-20T07:15:20.340Z,100124.41
2023-11-20T07:18:23.133Z,100127.97
2023-11-20T07:21:27.280Z,100126.59
2023-11-20T07:24:30.633Z,100126.06
2023-11-20T07:27:33.489Z,100124.97
2023-11-20T07:30:37.767Z,100120.56
2023-11-20T07:33:40.906Z,100121.13
2023-11-20T07:36:45.595Z,100120.84
2023-11-20T07:39:48.440Z,100127.97
2023-11-20T07:42:51.532Z,100129.38
2023-11-20T07:45:54.422Z,100131.81
2023-11-20T07:48:57.341Z,100135.41
2023-11-20T07:52:01.489Z,100139.78
2023-11-20T07:55:05.292Z,100142.81
2023-11-20T07:58:08.023Z,100145.00
2023-11-20T08:01:10.947Z,100139.50
2023-11-20T08:04:17.582Z,100143.91
2023-11-20T08:07:22.100Z,100148.03
2023-11-20T08:10:25.037Z,100151.59
2023-11-20T08:13:28.008Z,100151.31
2023-11-20T08:16:30.868Z,100147.22
2023-11-20T08:19:33.819Z,100154.09
2023-11-20T08:22:39.342Z,100160.69
2023-11-20T08:25:42.311Z,100156.53
2023-11-20T08:28:45.176Z,100159.00
2023-11-20T08:31:48.648Z,100161.50
2023-11-20T08:34:52.126Z,100161.47
2023-11-20T08:37:56.775Z,100168.06
2023-11-20T08:40:59.614Z,100166.72
2023-11-20T08:44:03.082Z,100168.06
2023-11-20T08:47:07.283Z,100179.09
2023-11-20T08:50:11.962Z,100176.34
2023-11-20T08:53:16.713Z,100170.56
2023-11-20T08:56:19.466Z,100165.59
2023-11-20T08:59:22.636Z,100164.25
2023-11-20T09:02:26.409Z,100170.84
2023-11-20T09:05:29.693Z,100176.88
2023-11-20T09:08:33.822Z,100173.03
2023-11-20T09:11:36.793Z,100169.19
2023-11-20T09:14:39.592Z,100168.38
2023-11-20T09:17:43.591Z,100178.81
2023-11-20T09:20:46.703Z,100164.22
2023-11-20T09:23:51.145Z,100173.00
2023-11-20T09:26:54.092Z,100172.16
2023-11-20T09:29:57.557Z,100171.28
2023-11-20T09:33:01.763Z,100177.63
2023-11-20T09:36:04.900Z,100172.34
2023-11-20T09:39:10.320Z,100165.53
2023-11-20T09:42:13.098Z,100177.03
2023-11-20T09:45:28.252Z,100169.34
2023-11-20T09:48:34.584Z,100163.56
2023-11-20T09:51:38.723Z,100165.22
2023-11-20T09:54:45.140Z,100171.25
2023-11-20T09:57:50.066Z,100167.97
2023-11-20T10:00:58.861Z,100171.59
2023-11-20T10:04:03.029Z,100173.50
2023-11-20T10:07:10.244Z,100165.53
2023-11-20T10:10:14.868Z,100167.66
2023-11-20T10:13:19.108Z,100166.31
2023-11-20T10:16:24.539Z,100159.13
2023-11-20T10:19:27.715Z,100165.72
2023-11-20T10:22:36.198Z,100167.91
2023-11-20T10:25:40.280Z,100152.19
2023-11-20T10:28:43.474Z,100173.09
2023-11-20T10:31:47.778Z,100169.78
2023-11-20T10:34:51.567Z,100164.59
2023-11-20T10:37:59.198Z,100159.88
2023-11-20T10:41:04.505Z,100154.63
2023-11-20T10:44:08.682Z,100153.00
2023-11-20T10:47:14.295Z,100150.25
2023-11-20T10:50:18.815Z,100150.28
2023-11-20T10:53:24.540Z,100164.59
2023-11-20T10:56:32.995Z,100162.13
2023-11-20T10:59:37.795Z,100157.75
2023-11-20T11:02:43.236Z,100157.75
2023-11-20T11:05:47.719Z,100156.94
2023-11-20T11:08:52.018Z,100161.03
2023-11-20T11:11:58.284Z,100164.88
2023-11-20T11:15:01.026Z,100163.53
2023-11-20T11:18:09.991Z,100167.97
2023-11-20T11:21:17.597Z,100164.66
2023-11-20T11:24:26.063Z,100168.50
2023-11-20T11:27:38.144Z,100166.03
2023-11-20T11:30:43.743Z,100161.63
2023-11-20T11:34:18.742Z,100162.16
2023-11-20T11:37:32.018Z,100158.81
2023-11-20T11:40:50.247Z,100158.81
2023-11-20T11:44:01.105Z,100149.75
2023-11-20T11:47:05.230Z,100151.44
2023-11-20T11:50:09.200Z,100149.78
2023-11-20T11:53:12.864Z,100143.19
2023-11-20T11:56:16.233Z,100142.34
2023-11-20T11:59:27.652Z,100148.97
2023-11-20T12:02:54.352Z,100150.56
2023-11-20T12:06:16.007Z,100150.84
2023-11-20T12:09:18.924Z,100139.59
2023-11-20T12:12:21.676Z,100145.09
2023-11-20T12:15:37.545Z,100134.94
2023-11-20T12:18:41.263Z,100139.88
2023-11-20T12:21:45.347Z,100139.59
2023-11-20T12:24:48.197Z,100142.94
2023-11-20T12:27:53.407Z,100146.78
2023-11-20T12:30:57.613Z,100142.91
2023-11-20T12:34:02.263Z,100127.47
2023-11-20T12:37:05.843Z,100144.56
2023-11-20T12:40:12.554Z,100145.09
2023-11-20T12:43:15.877Z,100147.31
2023-11-20T12:46:21.046Z,100147.03
2023-11-20T12:49:24.379Z,100133.81
2023-11-20T12:52:27.299Z,100139.28
2023-11-20T12:55:30.690Z,100142.31
2023-11-20T12:58:34.048Z,100140.41
2023-11-20T13:01:38.527Z,100138.19
2023-11-20T13:04:41.700Z,100133.22
2023-11-20T13:07:46.816Z,100124.66
2023-11-20T13:10:53.482Z,100127.38
2023-11-20T13:13:56.541Z,100121.88
2023-11-20T13:17:01.024Z,100125.44
2023-11-20T13:20:07.050Z,100133.47
2023-11-20T13:23:23.878Z,100135.63
2023-11-20T13:26:27.636Z,100132.06
2023-11-20T13:29:31.825Z,100127.09
2023-11-20T13:32:38.676Z,100124.88
2023-11-20T13:35:41.471Z,100126.31
2023-11-20T13:38:44.403Z,100132.63
2023-11-20T13:41:47.192Z,100127.72
2023-11-20T13:44:49.925Z,100122.19
2023-11-20T13:47:54.068Z,100123.56
2023-11-20T13:50:57.270Z,100128.81
2023-11-20T13:54:00.221Z,100129.34
2023-11-20T13:57:04.820Z,100123.56
2023-11-20T14:00:19.607Z,100126.06
2023-11-20T14:03:24.118Z,100128.88
2023-11-20T14:06:27.330Z,100137.94
2023-11-20T14:09:30.472Z,100136.81
2023-11-20T14:12:33.307Z,100147.81
2023-11-20T14:15:37.318Z,100139.03
2023-11-20T14:18:41.639Z,100153.34
2023-11-20T14:21:45.993Z,100150.31
2023-11-20T14:24:49.059Z,100158.56
2023-11-20T14:27:52.329Z,100153.09
2023-11-20T14:30:55.183Z,100152.84
2023-11-20T14:33:59.462Z,100163.84
2023-11-20T14:37:02.584Z,100164.41
2023-11-20T14:40:09.568Z,100166.88
2023-11-20T14:43:13.488Z,100165.78
2023-11-20T14:46:18.031Z,100169.59
2023-11-20T14:49:22.444Z,100173.44
2023-11-20T14:52:25.491Z,100166.59
2023-11-20T14:55:29.103Z,100167.19
2023-11-20T14:58:36.222Z,100171.00
2023-11-20T15:02:22.550Z,100175.44
2023-11-20T15:05:27.362Z,100174.88
2023-11-20T15:08:30.423Z,100178.75
2023-11-20T15:11:33.715Z,100169.13
2023-11-20T15:14:36.531Z,100170.50
2023-11-20T15:17:39.855Z,100178.75
2023-11-20T15:20:43.950Z,100179.84
2023-11-20T15:23:46.890Z,100182.88
2023-11-20T15:26:49.823Z,100185.63
2023-11-20T15:29:52.671Z,100195.78
2023-11-20T15:32:57.549Z,100199.38
2023-11-20T15:36:03.024Z,100203.25
2023-11-20T15:39:07.151Z,100202.97
2023-11-20T15:42:10.148Z,100206.25
2023-11-20T15:45:13.666Z,100200.47
2023-11-20T15:48:19.357Z,100208.47
2023-11-20T15:51:23.663Z,100209.00
2023-11-20T15:54:26.466Z,100208.16
2023-11-20T15:57:29.434Z,100205.72
2023-11-20T16:00:34.223Z,100212.31
2023-11-20T16:03:37.563Z,100204.59
2023-11-20T16:06:42.197Z,100215.34
2023-11-20T16:09:44.949Z,100212.84
2023-11-20T16:12:47.875Z,100211.75
2023-11-20T16:15:50.733Z,100219.44
2023-11-20T16:18:53.794Z,100225.22
2023-11-20T16:21:59.270Z,100222.44
2023-11-20T16:25:02.136Z,100226.03
2023-11-20T16:28:05.337Z,100221.66
2023-11-20T16:31:08.401Z,100220.81
2023-11-20T16:34:11.255Z,100232.63
2023-11-20T16:37:18.938Z,100235.41
2023-11-20T16:40:21.844Z,100227.13
2023-11-20T16:43:25.002Z,100228.78
2023-11-20T16:46:31.519Z,100231.53
2023-11-20T16:49:36.964Z,100236.75
2023-11-20T16:52:42.859Z,100238.41
2023-11-20T16:55:45.596Z,100235.38
2023-11-20T16:58:48.594Z,100239.78
2023-11-20T17:01:51.868Z,100237.84
2023-11-20T17:04:55.059Z,100241.69
2023-11-20T17:07:59.338Z,100246.09
2023-11-20T17:11:02.047Z,100243.06
2023-11-20T17:14:05.400Z,100240.88
2023-11-20T17:17:09.894Z,100249.13
2023-11-20T17:20:13.475Z,100246.38
2023-11-20T17:23:17.880Z,100245.56
2023-11-20T17:26:20.829Z,100251.84
2023-11-20T17:29:24.107Z,100253.50
2023-11-20T17:32:27.259Z,100251.84
2023-11-20T17:35:30.476Z,100252.69
2023-11-20T17:38:34.836Z,100254.88
2023-11-20T17:41:38.503Z,100259.00
2023-11-20T17:44:42.879Z,100256.50
2023-11-20T17:47:45.806Z,100256.47
2023-11-20T17:50:48.937Z,100263.06
2023-11-20T17:53:53.153Z,100272.13
2023-11-20T17:56:55.953Z,100274.06
2023-11-20T18:00:00.650Z,100272.69
2023-11-20T18:03:07.977Z,100279.78
2023-11-20T18:06:11.450Z,100282.84
2023-11-20T18:09:20.836Z,100276.78
2023-11-20T18:12:23.728Z,100283.09
2023-11-20T18:15:26.637Z,100285.28
2023-11-20T18:18:29.427Z,100289.94
2023-11-20T18:21:43.146Z,100289.38
2023-11-20T18:24:50.905Z,100297.84
2023-11-20T18:27:54.022Z,100299.75
2023-11-20T18:30:57.210Z,100294.25
2023-11-20T18:34:00.493Z,100300.53
2023-11-20T18:37:05.175Z,100301.56
2023-11-20T18:40:15.140Z,100305.13
2023-11-20T18:43:20.254Z,100305.06
2023-11-20T18:46:23.170Z,100312.53
2023-11-20T18:49:25.985Z,100295.31
2023-11-20T18:52:28.980Z,100304.56
2023-11-20T18:55:33.740Z,100311.66
2023-11-20T18:58:36.632Z,100313.84
2023-11-20T19:01:39.697Z,100316.03
2023-11-20T19:04:43.978Z,100322.94
2023-11-20T19:07:46.877Z,100328.38
2023-11-20T19:10:51.083Z,100325.28
2023-11-20T19:13:54.123Z,100338.44
2023-11-20T19:16:57.184Z,100329.69
2023-11-20T19:20:00.134Z,100336.81
2023-11-20T19:23:04.339Z,100335.97
2023-11-20T19:26:11.876Z,100345.84
2023-11-20T19:29:16.504Z,100351.06
2023-11-20T19:32:19.624Z,100353.59
2023-11-20T19:35:24.223Z,100353.41
2023-11-20T19:38:27.846Z,100349.59
2023-11-20T19:41:32.111Z,100345.97
2023-11-20T19:44:35.332Z,100347.41
2023-11-20T19:47:38.603Z,100351.72
2023-11-20T19:50:41.688Z,100358.06
2023-11-20T19:53:49.707Z,100345.75
2023-11-20T19:56:53.917Z,100350.63
2023-11-20T19:59:58.692Z,100346.22
2023-11-20T20:03:01.599Z,100348.50
2023-11-20T20:06:04.551Z,100349.59
2023-11-20T20:09:10.048Z,100344.31
2023-11-20T20:12:14.597Z,100353.03
2023-11-20T20:15:17.401Z,100353.34
2023-11-20T20:18:20.848Z,100348.16
2023-11-20T20:21:23.634Z,100349.50
2023-11-20T20:24:26.664Z,100360.44
2023-11-20T20:27:30.951Z,100359.91
2023-11-20T20:30:33.924Z,100354.97
2023-11-20T20:33:36.861Z,100362.28
2023-11-20T20:36:40.215Z,100364.03
2023-11-20T20:42:50.283Z,100365.31
2023-11-20T20:45:53.212Z,100371.28
2023-11-20T20:48:55.944Z,100370.44
2023-11-20T20:51:59.072Z,100371.31
2023-11-20T20:55:02.233Z,100374.56
2023-11-20T20:58:06.621Z,100382.25
2023-11-20T21:01:09.736Z,100385.53
2023-11-20T21:04:12.690Z,100380.91
2023-11-20T21:07:16.360Z,100382.81
2023-11-20T21:10:19.189Z,100386.63
2023-11-20T21:13:23.312Z,100375.88
2023-11-20T21:16:26.100Z,100384.44
2023-11-20T21:19:29.839Z,100387.75
2023-11-20T21:22:32.855Z,100381.16
2023-11-20T21:25:36.053Z,100391.28
2023-11-20T21:28:41.519Z,100391.78
2023-11-20T21:31:46.863Z,100398.81
2023-11-20T21:34:55.556Z,100396.63
2023-11-20T21:38:05.227Z,100400.72
2023-11-20T21:41:07.981Z,100398.09
2023-11-20T21:44:12.930Z,100394.56
2023-11-20T21:47:15.949Z,100397.91
2023-11-20T21:50:18.837Z,100393.06
2023-11-20T21:53:21.769Z,100399.16
2023-11-20T21:56:24.719Z,100393.41
2023-11-20T21:59:28.963Z,100398.28
2023-11-20T22:02:32.005Z,100394.41
2023-11-20T22:05:35.046Z,100405.81
2023-11-20T22:08:43.939Z,100397.66
2023-11-20T22:11:47.752Z,100397.44
2023-11-20T22:14:53.754Z,100397.78
2023-11-20T22:17:56.615Z,100402.44
2023-11-20T22:20:59.545Z,100401.22
2023-11-20T22:24:02.330Z,100402.00
2023-11-20T22:27:06.673Z,100408.94
2023-11-20T22:30:11.790Z,100414.47
2023-11-20T22:33:14.639Z,100408.41
2023-11-20T22:36:17.533Z,100404.16
2023-11-20T22:39:20.335Z,100403.06
2023-11-20T22:42:23.377Z,100411.31
2023-11-20T22:45:27.813Z,100402.06
2023-11-20T22:48:30.782Z,100406.69
2023-11-20T22:51:33.682Z,100413.34
2023-11-20T22:54:36.658Z,100419.50
2023-11-20T22:57:39.876Z,100420.72
2023-11-20T23:00:47.298Z,100420.63
2023-11-20T23:03:50.524Z,100420.59
2023-11-20T23:06:54.811Z,100423.81
2023-11-20T23:09:58.814Z,100426.63
2023-11-20T23:13:02.290Z,100434.78
2023-11-20T23:16:07.998Z,100441.34
2023-11-20T23:19:12.970Z,100440.09
2023-11-20T23:22:15.987Z,100443.53
2023-11-20T23:25:20.598Z,100450.78
2023-11-20T23:28:25.438Z,100463.66
2023-11-20T23:31:29.629Z,100465.00
2023-11-20T23:34:33.451Z,100468.91
2023-11-20T23:37:36.680Z,100466.84
2023-11-20T23:40:40.006Z,100470.78
2023-11-20T23:43:43.296Z,100474.03
2023-11-20T23:46:48.495Z,100487.28
2023-11-20T23:49:51.399Z,100491.94
2023-11-20T23:52:54.745Z,100488.63
2023-11-20T23:55:57.923Z,100495.97
2023-11-20T23:59:00.978Z,100494.16
